Time;durP1;ratioP1;P1;durP2;ratioP2;P2;SDS_P1;SDS_P2;PMS_P1;PMS_P2;Temp;Humidity;BMP_temperature;BMP_pressure;BME280_temperature;BME280_humidity;BME280_pressure;Samples;Min_cycle;Max_cycle;Signal;HPM_P1;HPM_P2
2022/10/14 00:00:18;;;;;;;12.00;10.85;;;10.50;99.90;;;;;;4171220;28;20103;-57
2022/10/14 00:02:38;;;;;;;11.02;10.32;;;10.40;99.90;;;;;;4171666;28;20045;-57
2022/10/14 00:04:59;;;;;;;11.43;10.65;;;10.20;99.90;;;;;;4171761;28;20116;-58
2022/10/14 00:07:19;;;;;;;9.27;8.73;;;10.20;99.90;;;;;;4171191;28;20102;-57
2022/10/14 00:09:41;;;;;;;9.93;9.20;;;10.30;99.90;;;;;;4171962;28;20056;-57
2022/10/14 00:12:02;;;;;;;10.38;9.43;;;10.40;99.90;;;;;;4171570;28;20068;-57
2022/10/14 00:14:22;;;;;;;11.68;11.00;;;10.30;99.90;;;;;;4171225;28;20129;-56
2022/10/14 00:16:45;;;;;;;10.80;10.10;;;10.20;99.90;;;;;;4171554;28;20467;-57
2022/10/14 00:19:06;;;;;;;;;;;10.20;99.90;;;;;;4171892;28;20056;-57
2022/10/14 00:21:27;;;;;;;10.23;9.73;;;10.20;99.90;;;;;;4161978;28;19979;-57
2022/10/14 00:23:48;;;;;;;9.70;9.20;;;10.20;99.90;;;;;;4171609;28;20052;-57
2022/10/14 00:26:18;;;;;;;10.02;9.52;;;10.00;99.90;;;;;;4171372;28;20052;-57
2022/10/14 00:28:38;;;;;;;12.45;11.35;;;9.80;99.90;;;;;;4171449;28;20106;-57
2022/10/14 00:31:00;;;;;;;11.50;10.20;;;9.70;99.90;;;;;;4170875;28;20061;-57
2022/10/14 00:33:21;;;;;;;11.27;10.65;;;9.80;99.90;;;;;;4170854;28;20061;-57
2022/10/14 00:35:42;;;;;;;10.20;9.57;;;9.90;99.90;;;;;;4171518;28;20807;-57
2022/10/14 00:38:03;;;;;;;11.95;10.80;;;9.90;99.90;;;;;;4156869;28;20060;-57
2022/10/14 00:40:24;;;;;;;11.55;10.85;;;10.00;99.90;;;;;;4171598;28;20052;-56
2022/10/14 00:42:44;;;;;;;11.77;10.93;;;10.00;99.90;;;;;;4171088;28;20056;-57
2022/10/14 00:45:14;;;;;;;11.75;10.85;;;10.00;99.90;;;;;;4171566;28;20573;-57
2022/10/14 00:47:35;;;;;;;12.60;11.73;;;9.90;99.90;;;;;;4171187;28;20512;-57
2022/10/14 00:49:58;;;;;;;11.48;10.85;;;9.80;99.90;;;;;;4171140;28;20047;-57
2022/10/14 00:52:20;;;;;;;;;;;9.70;99.90;;;;;;4171174;28;20102;-57
2022/10/14 00:54:50;;;;;;;12.98;11.75;;;9.60;99.90;;;;;;4170907;28;20386;-56
2022/10/14 00:57:11;;;;;;;11.77;10.85;;;9.60;99.90;;;;;;4171172;28;20051;-57
2022/10/14 00:59:33;;;;;;;12.57;11.82;;;9.50;99.90;;;;;;4170330;28;20404;-57
2022/10/14 01:01:54;;;;;;;12.68;11.45;;;9.40;99.90;;;;;;4170843;28;20056;-57
2022/10/14 01:04:14;;;;;;;10.57;10.02;;;9.40;99.90;;;;;;4170297;28;20056;-57
2022/10/14 01:06:58;;;;;;;11.20;10.52;;;9.40;99.90;;;;;;4170729;28;20517;-57
2022/10/14 01:09:28;;;;;;;11.73;11.07;;;9.50;99.90;;;;;;4170384;28;20060;-56
2022/10/14 01:12:03;;;;;;;12.48;11.25;;;9.40;99.90;;;;;;4171124;28;20055;-58
2022/10/14 01:14:58;;;;;;;12.75;11.70;;;9.40;99.90;;;;;;4170579;28;20111;-56
2022/10/14 01:17:37;;;;;;;11.93;11.05;;;9.30;99.90;;;;;;4169395;28;20481;-57
2022/10/14 01:20:32;;;;;;;12.00;11.13;;;9.30;99.90;;;;;;4171243;28;20400;-57
2022/10/14 01:23:06;;;;;;;11.77;11.18;;;9.40;99.90;;;;;;4156132;28;20468;-57
2022/10/14 01:25:45;;;;;;;13.35;12.07;;;9.50;99.90;;;;;;4170320;28;20060;-56
2022/10/14 01:28:08;;;;;;;12.95;11.75;;;9.50;99.90;;;;;;4170471;28;20104;-57
2022/10/14 01:30:33;;;;;;;11.90;11.13;;;9.50;99.90;;;;;;4170261;28;20057;-57
2022/10/14 01:33:13;;;;;;;12.82;11.95;;;9.40;99.90;;;;;;4170107;28;20079;-57
2022/10/14 01:35:52;;;;;;;11.93;10.82;;;9.20;99.90;;;;;;4165812;28;20056;-57
2022/10/14 01:38:42;;;;;;;13.38;12.25;;;9.10;99.90;;;;;;4170458;28;20111;-57
2022/10/14 01:41:28;;;;;;;68.55;13.55;;;9.00;99.90;;;;;;4170615;28;20125;-57
2022/10/14 01:43:50;;;;;;;62.22;13.75;;;8.90;99.90;;;;;;4168058;28;20137;-57
2022/10/14 01:46:12;;;;;;;15.00;13.75;;;8.80;99.90;;;;;;4155327;28;20107;-58
2022/10/14 01:48:36;;;;;;;14.77;13.52;;;8.80;99.90;;;;;;4169669;28;20056;-57
2022/10/14 01:50:59;;;;;;;14.68;13.57;;;8.90;99.90;;;;;;4170006;28;20060;-58
2022/10/14 01:53:29;;;;;;;15.45;13.90;;;8.90;99.90;;;;;;4169978;28;20055;-58
2022/10/14 01:55:53;;;;;;;14.82;13.52;;;9.00;99.90;;;;;;4170585;28;20132;-57
2022/10/14 01:58:16;;;;;;;15.73;14.25;;;8.90;99.90;;;;;;4155785;28;20100;-57
2022/10/14 02:00:37;;;;;;;14.38;13.15;;;8.80;99.90;;;;;;4169993;28;20059;-58
2022/10/14 02:02:57;;;;;;;25.42;13.07;;;8.90;99.90;;;;;;4169730;28;20610;-57
2022/10/14 02:05:30;;;;;;;12.10;11.10;;;9.00;99.90;;;;;;4170169;28;20051;-57
2022/10/14 02:08:23;;;;;;;13.05;12.38;;;9.00;99.90;;;;;;4169352;28;20079;-58
2022/10/14 02:10:56;;;;;;;12.02;11.20;;;8.80;99.90;;;;;;4168846;28;20128;-56
2022/10/14 02:13:34;;;;;;;12.48;11.57;;;8.90;99.90;;;;;;4170038;28;20103;-57
2022/10/14 02:16:13;;;;;;;24.00;15.83;;;8.90;99.90;;;;;;4170264;28;20564;-57
2022/10/14 02:18:59;;;;;;;94.20;17.58;;;8.80;99.90;;;;;;4169713;28;20140;-57
2022/10/14 02:21:38;;;;;;;95.32;15.50;;;8.60;99.90;;;;;;4169805;28;20088;-57
2022/10/14 02:24:18;;;;;;;16.80;13.80;;;8.50;99.90;;;;;;4169807;28;20052;-57
2022/10/14 02:26:41;;;;;;;29.42;14.35;;;8.40;99.90;;;;;;4169551;28;20163;-57
2022/10/14 02:29:04;;;;;;;29.75;14.45;;;8.40;99.90;;;;;;4169182;28;20099;-58
2022/10/14 02:31:27;;;;;;;16.80;13.60;;;8.50;99.90;;;;;;4168849;28;20134;-56
2022/10/14 02:33:57;;;;;;;13.90;12.80;;;8.60;99.90;;;;;;4169741;28;20144;-57
2022/10/14 02:36:21;;;;;;;15.05;13.93;;;8.60;99.90;;;;;;4169573;28;20415;-57
2022/10/14 02:38:43;;;;;;;14.00;13.10;;;8.60;99.90;;;;;;4169335;28;20424;-57
2022/10/14 02:41:06;;;;;;;50.22;13.65;;;8.60;99.90;;;;;;4168506;28;20400;-56
2022/10/14 02:43:27;;;;;;;55.13;12.73;;;8.50;99.90;;;;;;4169673;28;20064;-57
2022/10/14 02:45:47;;;;;;;13.35;12.45;;;8.30;99.90;;;;;;4169143;28;20051;-56
2022/10/14 02:48:09;;;;;;;12.80;11.98;;;8.30;99.90;;;;;;4167045;28;20056;-56
2022/10/14 02:50:29;;;;;;;13.52;12.27;;;8.50;99.90;;;;;;4169673;28;20099;-57
2022/10/14 02:52:49;;;;;;;13.10;12.35;;;8.40;99.90;;;;;;4169389;28;20098;-56
2022/10/14 02:55:10;;;;;;;12.13;11.32;;;8.50;99.90;;;;;;4168620;28;20125;-57
2022/10/14 02:57:31;;;;;;;16.63;13.15;;;8.50;99.90;;;;;;4169485;28;20176;-57
2022/10/14 02:59:51;;;;;;;13.68;12.85;;;8.40;99.90;;;;;;4159755;28;20109;-58
2022/10/14 03:02:12;;;;;;;11.60;10.85;;;8.30;99.90;;;;;;4169500;28;20419;-57
2022/10/14 03:04:33;;;;;;;12.32;11.35;;;8.40;99.90;;;;;;4169502;28;20096;-57
2022/10/14 03:06:54;;;;;;;9.05;8.70;;;8.50;99.90;;;;;;4169047;28;20660;-56
2022/10/14 03:09:14;;;;;;;8.68;8.38;;;8.50;99.90;;;;;;4166542;28;20095;-57
2022/10/14 03:11:35;;;;;;;8.38;8.00;;;8.40;99.90;;;;;;4168730;28;20107;-57
2022/10/14 03:13:55;;;;;;;8.82;8.32;;;8.30;99.90;;;;;;4169264;28;20067;-58
2022/10/14 03:16:16;;;;;;;10.07;8.32;;;8.30;99.90;;;;;;4169260;28;20055;-57
2022/10/14 03:18:37;;;;;;;9.15;8.65;;;8.30;99.90;;;;;;4168840;28;20063;-56
2022/10/14 03:20:57;;;;;;;8.13;7.82;;;8.30;99.90;;;;;;4165321;28;20128;-57
2022/10/14 03:23:18;;;;;;;8.25;7.95;;;8.30;99.90;;;;;;4166033;28;20048;-57
2022/10/14 03:25:38;;;;;;;7.95;7.55;;;8.40;99.90;;;;;;4168855;28;20122;-57
2022/10/14 03:27:58;;;;;;;8.32;7.90;;;8.40;99.90;;;;;;4168574;28;20056;-58
2022/10/14 03:30:19;;;;;;;8.68;8.30;;;8.30;99.90;;;;;;4169438;28;20051;-58
2022/10/14 03:32:39;;;;;;;9.20;9.00;;;8.40;99.90;;;;;;4168952;28;20158;-57
2022/10/14 03:35:00;;;;;;;9.68;9.43;;;8.50;99.90;;;;;;4166720;28;20489;-57
2022/10/14 03:37:21;;;;;;;8.85;8.65;;;8.60;99.90;;;;;;4168011;28;20176;-57
2022/10/14 03:39:41;;;;;;;10.18;9.77;;;8.40;99.90;;;;;;4168678;28;20059;-57
2022/10/14 03:42:02;;;;;;;13.35;12.60;;;8.30;99.90;;;;;;4168362;28;20060;-57
2022/10/14 03:44:23;;;;;;;12.18;11.27;;;8.30;99.90;;;;;;4169230;28;20120;-57
2022/10/14 03:46:43;;;;;;;12.43;11.70;;;8.20;99.90;;;;;;4168923;28;20487;-56
2022/10/14 03:49:04;;;;;;;26.67;10.05;;;8.10;99.90;;;;;;4165944;28;20049;-57
2022/10/14 03:51:24;;;;;;;10.45;10.02;;;8.00;99.90;;;;;;4169008;28;20056;-57
2022/10/14 03:53:45;;;;;;;11.80;11.02;;;7.90;99.90;;;;;;4169103;28;20132;-56
2022/10/14 03:56:06;;;;;;;9.60;9.30;;;7.90;99.90;;;;;;4169146;28;20067;-57
2022/10/14 03:58:26;;;;;;;11.02;10.52;;;8.00;99.90;;;;;;4168812;28;20075;-58
2022/10/14 04:00:47;;;;;;;9.98;9.52;;;7.80;99.90;;;;;;4165481;28;20096;-57
2022/10/14 04:03:07;;;;;;;20.27;9.45;;;7.90;99.90;;;;;;4168599;28;20111;-56
2022/10/14 04:05:32;;;;;;;9.70;9.50;;;7.80;99.90;;;;;;4168418;28;20084;-56
2022/10/14 04:07:52;;;;;;;11.50;9.45;;;7.80;99.90;;;;;;4167044;28;20056;-57
2022/10/14 04:10:13;;;;;;;17.90;7.82;;;7.90;99.90;;;;;;4171849;28;20116;-57
2022/10/14 04:12:33;;;;;;;10.40;9.68;;;7.70;99.90;;;;;;4171918;28;20047;-57
2022/10/14 04:14:55;;;;;;;9.68;9.48;;;7.70;99.90;;;;;;4171266;28;21026;-57
2022/10/14 04:17:16;;;;;;;9.50;8.70;;;7.70;99.90;;;;;;4171807;28;20133;-57
2022/10/14 04:19:36;;;;;;;9.43;9.02;;;7.70;99.90;;;;;;4171232;28;20112;-58
2022/10/14 04:21:57;;;;;;;10.35;10.05;;;7.60;99.90;;;;;;4168074;28;20121;-56
2022/10/14 04:24:17;;;;;;;9.73;9.52;;;7.60;99.90;;;;;;4170536;28;20060;-58
2022/10/14 04:26:37;;;;;;;8.85;8.65;;;7.60;99.90;;;;;;4171605;28;20076;-57
2022/10/14 04:28:58;;;;;;;10.70;10.30;;;7.50;99.90;;;;;;4171549;28;20167;-57
2022/10/14 04:31:18;;;;;;;10.80;10.25;;;7.60;99.90;;;;;;4172134;28;20129;-57
2022/10/14 04:33:39;;;;;;;10.88;10.38;;;7.70;99.90;;;;;;4170048;28;20060;-57
2022/10/14 04:36:02;;;;;;;33.50;11.43;;;7.70;99.90;;;;;;4171005;28;20136;-57
2022/10/14 04:38:23;;;;;;;;;;;7.50;99.90;;;;;;4171846;28;20136;-56
2022/10/14 04:40:44;;;;;;;89.93;15.55;;;7.30;99.90;;;;;;4168751;28;20331;-57
2022/10/14 04:43:05;;;;;;;21.15;14.88;;;7.20;99.90;;;;;;4170972;28;20063;-57
2022/10/14 04:45:25;;;;;;;31.42;16.85;;;7.10;99.90;;;;;;4170659;28;20059;-57
2022/10/14 04:47:45;;;;;;;144.20;21.05;;;7.10;99.90;;;;;;4170391;28;20110;-58
2022/10/14 04:50:08;;;;;;;37.78;17.52;;;7.00;99.90;;;;;;4170897;28;20523;-57
2022/10/14 04:52:28;;;;;;;83.55;15.23;;;7.00;99.90;;;;;;4167907;28;20096;-57
2022/10/14 04:54:49;;;;;;;61.97;11.20;;;7.00;99.90;;;;;;4170717;28;20107;-57
2022/10/14 04:57:10;;;;;;;9.23;8.85;;;7.00;99.90;;;;;;4171222;28;20603;-57
2022/10/14 04:59:30;;;;;;;8.93;8.70;;;7.20;99.90;;;;;;4170752;28;20064;-58
2022/10/14 05:01:50;;;;;;;9.15;8.80;;;7.30;99.90;;;;;;4161653;28;20056;-57
2022/10/14 05:04:11;;;;;;;11.23;10.98;;;7.30;99.90;;;;;;4171617;28;20045;-57
2022/10/14 05:06:31;;;;;;;7.82;7.63;;;7.20;99.90;;;;;;4170489;28;20599;-57
2022/10/14 05:08:52;;;;;;;10.73;10.52;;;7.20;99.90;;;;;;4170956;28;20120;-57
2022/10/14 05:11:13;;;;;;;12.07;11.63;;;7.20;99.90;;;;;;4170757;28;20064;-58
2022/10/14 05:13:34;;;;;;;12.55;12.00;;;7.20;99.90;;;;;;4169127;28;20063;-57
2022/10/14 05:15:55;;;;;;;11.85;11.20;;;7.20;99.90;;;;;;4170045;28;20052;-58
2022/10/14 05:18:16;;;;;;;13.95;13.38;;;7.20;99.90;;;;;;4166837;28;20107;-57
2022/10/14 05:20:37;;;;;;;14.75;14.02;;;7.20;99.90;;;;;;4169871;28;20497;-57
2022/10/14 05:22:57;;;;;;;15.75;15.15;;;7.10;99.90;;;;;;4169724;28;20587;-57
2022/10/14 05:25:18;;;;;;;11.95;11.38;;;7.10;99.90;;;;;;4167539;28;20124;-57
2022/10/14 05:27:38;;;;;;;13.10;12.27;;;7.20;99.90;;;;;;4170348;28;20125;-59
2022/10/14 05:29:59;;;;;;;9.10;8.82;;;7.10;99.90;;;;;;4168908;28;20408;-59
2022/10/14 05:32:19;;;;;;;82.22;13.30;;;7.10;99.90;;;;;;4170640;28;20056;-58
2022/10/14 05:34:40;;;;;;;10.23;9.48;;;7.10;99.90;;;;;;4170159;28;20531;-59
2022/10/14 05:37:01;;;;;;;8.32;7.65;;;7.00;99.90;;;;;;4170195;28;20491;-59
2022/10/14 05:39:21;;;;;;;137.20;14.95;;;7.00;99.90;;;;;;4171319;28;20103;-59
2022/10/14 05:41:42;;;;;;;32.70;15.57;;;7.00;99.90;;;;;;4170083;28;20075;-59
2022/10/14 05:44:03;;;;;;;77.28;16.83;;;6.90;99.90;;;;;;4169282;28;20527;-59
2022/10/14 05:46:24;;;;;;;16.45;13.82;;;7.00;99.90;;;;;;4170209;28;20114;-59
2022/10/14 05:48:45;;;;;;;19.88;12.82;;;6.90;99.90;;;;;;4169916;28;20055;-59
2022/10/14 05:51:05;;;;;;;58.15;14.77;;;6.90;99.90;;;;;;4170179;28;20056;-59
2022/10/14 05:53:25;;;;;;;14.15;13.40;;;6.80;99.90;;;;;;4170292;28;20141;-59
2022/10/14 05:55:46;;;;;;;25.30;13.40;;;6.90;99.90;;;;;;4169421;28;20511;-59
2022/10/14 05:58:06;;;;;;;145.00;17.35;;;7.00;99.90;;;;;;4170038;28;20416;-59
2022/10/14 06:00:27;;;;;;;24.33;10.38;;;6.90;99.90;;;;;;4170292;28;20067;-59
2022/10/14 06:02:47;;;;;;;13.43;9.38;;;6.90;99.90;;;;;;4154847;28;20111;-59
2022/10/14 06:05:08;;;;;;;11.32;10.93;;;7.00;99.90;;;;;;4166023;28;20083;-59
2022/10/14 06:07:29;;;;;;;10.15;9.63;;;7.00;99.90;;;;;;4169106;28;20400;-59
2022/10/14 06:09:50;;;;;;;12.23;11.35;;;7.00;99.90;;;;;;4169819;28;20121;-59
2022/10/14 06:12:10;;;;;;;266.60;20.45;;;7.20;99.90;;;;;;4169193;28;20415;-59
2022/10/14 06:14:30;;;;;;;269.45;22.23;;;7.10;99.90;;;;;;4169558;28;20114;-59
2022/10/14 06:16:51;;;;;;;139.65;18.73;;;6.90;99.90;;;;;;4169646;28;20059;-59
2022/10/14 06:19:11;;;;;;;40.03;15.57;;;6.90;99.90;;;;;;4155753;28;20064;-59
2022/10/14 06:21:32;;;;;;;118.40;18.38;;;6.90;99.90;;;;;;4169686;28;20060;-58
2022/10/14 06:23:52;;;;;;;142.95;18.77;;;6.90;99.90;;;;;;4168916;28;20071;-59
2022/10/14 06:26:12;;;;;;;110.35;16.15;;;6.90;99.90;;;;;;4168971;28;20103;-59
2022/10/14 06:28:33;;;;;;;73.53;16.42;;;7.00;99.90;;;;;;4168570;28;20126;-59
2022/10/14 06:30:54;;;;;;;35.17;11.38;;;7.00;99.90;;;;;;4169752;28;20551;-59
2022/10/14 06:33:14;;;;;;;10.75;10.25;;;7.10;99.90;;;;;;4169630;28;20056;-59
2022/10/14 06:35:35;;;;;;;8.38;8.18;;;7.20;99.90;;;;;;4169541;28;20149;-59
2022/10/14 06:37:56;;;;;;;7.45;7.07;;;7.40;99.90;;;;;;4169172;28;20143;-59
2022/10/14 06:40:17;;;;;;;8.95;8.65;;;7.50;99.90;;;;;;4168841;28;20514;-59
2022/10/14 06:42:37;;;;;;;9.80;9.25;;;7.60;99.90;;;;;;4169320;28;20102;-59
2022/10/14 06:44:58;;;;;;;9.10;8.70;;;7.60;99.90;;;;;;4169209;28;20115;-60
2022/10/14 06:47:19;;;;;;;9.02;8.73;;;7.70;99.90;;;;;;4169254;28;20519;-59
2022/10/14 06:49:39;;;;;;;10.05;9.65;;;7.80;99.90;;;;;;4168643;28;20434;-59
2022/10/14 06:52:00;;;;;;;10.77;10.25;;;7.90;99.90;;;;;;4169409;28;20052;-59
2022/10/14 06:54:20;;;;;;;10.63;10.13;;;8.10;99.90;;;;;;4169128;28;20470;-59
2022/10/14 06:56:40;;;;;;;10.93;10.35;;;8.10;99.90;;;;;;4169544;28;20064;-58
2022/10/14 06:59:01;;;;;;;10.48;9.93;;;8.20;99.90;;;;;;4169402;28;20051;-59
2022/10/14 07:01:22;;;;;;;8.68;8.20;;;8.30;99.90;;;;;;4169352;28;20060;-59
2022/10/14 07:03:43;;;;;;;9.25;8.70;;;8.40;99.90;;;;;;4169043;28;20087;-59
2022/10/14 07:06:05;;;;;;;9.52;9.13;;;8.40;99.90;;;;;;4168129;28;20299;-59
2022/10/14 07:08:25;;;;;;;10.40;9.52;;;8.60;99.90;;;;;;4166130;28;20555;-58
2022/10/14 07:10:46;;;;;;;9.05;8.75;;;8.60;99.90;;;;;;4169690;28;20055;-58
2022/10/14 07:13:07;;;;;;;8.98;8.45;;;8.70;99.90;;;;;;4165920;28;20064;-59
2022/10/14 07:15:27;;;;;;;8.23;7.90;;;8.80;99.90;;;;;;4168824;28;20084;-59
2022/10/14 07:17:55;;;;;;;8.95;8.38;;;8.90;99.90;;;;;;4160595;28;20136;-59
2022/10/14 07:20:16;;;;;;;7.47;7.28;;;9.30;99.90;;;;;;4168535;28;20210;-59
2022/10/14 07:22:36;;;;;;;8.45;7.80;;;9.40;99.90;;;;;;4168309;28;20139;-59
2022/10/14 07:24:58;;;;;;;7.93;7.43;;;9.40;99.90;;;;;;4168311;28;20095;-59
2022/10/14 07:27:19;;;;;;;7.45;6.90;;;9.40;99.90;;;;;;4169127;28;20126;-59
2022/10/14 07:29:40;;;;;;;57.88;9.60;;;9.60;99.90;;;;;;4169113;28;20107;-59
2022/10/14 07:32:01;;;;;;;5.15;4.85;;;9.80;99.90;;;;;;4168992;28;20051;-59
2022/10/14 07:34:22;;;;;;;6.75;6.22;;;9.80;99.90;;;;;;4168985;28;20064;-59
2022/10/14 07:36:42;;;;;;;5.40;5.00;;;9.80;99.90;;;;;;4168740;28;20903;-59
2022/10/14 07:39:04;;;;;;;12.82;6.15;;;9.90;99.90;;;;;;4169076;28;20053;-59
2022/10/14 07:41:25;;;;;;;6.07;5.68;;;9.90;99.90;;;;;;4168942;28;20060;-59
2022/10/14 07:43:49;;;;;;;6.40;6.20;;;10.10;99.90;;;;;;4172203;28;20067;-59
2022/10/14 07:46:11;;;;;;;6.60;5.50;;;10.20;99.90;;;;;;4172128;28;20095;-59
2022/10/14 07:48:32;;;;;;;13.30;6.63;;;10.30;99.90;;;;;;4172144;28;20060;-59
2022/10/14 07:51:13;;;;;;;8.77;8.13;;;10.30;99.90;;;;;;4171623;28;20107;-58
2022/10/14 07:53:35;;;;;;;8.02;7.65;;;10.40;99.90;;;;;;4172479;28;20102;-59
2022/10/14 07:55:57;;;;;;;7.03;6.77;;;10.40;99.90;;;;;;4172103;28;20056;-59
2022/10/14 07:58:23;;;;;;;6.13;5.93;;;10.50;99.90;;;;;;4172170;28;20285;-59
2022/10/14 08:00:44;;;;;;;18.80;6.78;;;10.70;99.90;;;;;;4171861;28;20059;-59
2022/10/14 08:03:05;;;;;;;6.00;5.60;;;10.90;99.90;;;;;;4172213;28;20102;-60
2022/10/14 08:05:26;;;;;;;6.20;5.90;;;11.10;99.90;;;;;;4171652;28;20451;-59
2022/10/14 08:08:02;;;;;;;5.57;5.10;;;11.30;99.90;;;;;;4171416;28;20059;-59
2022/10/14 08:10:22;;;;;;;6.15;5.95;;;11.40;99.90;;;;;;4171453;28;20052;-59
2022/10/14 08:12:42;;;;;;;6.72;6.18;;;11.60;99.90;;;;;;4170932;28;20134;-59
2022/10/14 08:15:03;;;;;;;4.90;4.60;;;11.70;99.90;;;;;;4171648;28;20060;-60
2022/10/14 08:17:24;;;;;;;4.30;4.20;;;11.70;99.90;;;;;;4171038;28;20164;-59
2022/10/14 08:19:45;;;;;;;5.05;4.65;;;11.70;99.90;;;;;;4171174;28;20055;-59
2022/10/14 08:22:05;;;;;;;5.30;4.90;;;11.70;99.90;;;;;;4169682;28;20087;-59
2022/10/14 08:24:26;;;;;;;4.90;4.60;;;11.90;99.90;;;;;;4171460;28;20048;-60
2022/10/14 08:26:52;;;;;;;5.13;4.93;;;12.00;99.90;;;;;;4171587;28;20226;-59
2022/10/14 08:29:12;;;;;;;4.43;4.32;;;12.10;99.90;;;;;;4171538;28;20519;-60
2022/10/14 08:31:33;;;;;;;4.57;4.38;;;12.20;99.90;;;;;;4171854;28;20107;-60
2022/10/14 08:33:54;;;;;;;4.30;4.10;;;12.30;99.90;;;;;;4167456;28;20051;-59
2022/10/14 08:36:16;;;;;;;4.82;4.55;;;12.30;99.90;;;;;;4171114;28;20047;-59
2022/10/14 08:38:37;;;;;;;4.70;4.30;;;12.40;99.90;;;;;;4171427;28;20176;-59
2022/10/14 08:41:15;;;;;;;4.95;4.65;;;12.40;99.90;;;;;;4171567;28;20052;-59
2022/10/14 08:43:37;;;;;;;6.40;6.15;;;12.60;99.90;;;;;;4167164;28;20088;-59
2022/10/14 08:46:12;;;;;;;5.30;4.82;;;12.70;99.90;;;;;;4170759;28;20055;-60
2022/10/14 08:48:34;;;;;;;5.22;4.88;;;12.90;99.90;;;;;;4171298;28;20056;-60
2022/10/14 08:51:02;;;;;;;5.10;4.72;;;13.10;99.90;;;;;;4167243;28;20547;-59
2022/10/14 08:53:30;;;;;;;5.13;4.82;;;13.10;99.90;;;;;;4170567;28;20132;-59
2022/10/14 08:55:53;;;;;;;5.15;4.70;;;13.20;99.90;;;;;;4171152;28;20531;-59
2022/10/14 08:58:20;;;;;;;5.28;4.97;;;13.30;99.90;;;;;;4171545;28;20524;-59
2022/10/14 09:00:44;;;;;;;4.72;4.43;;;13.40;99.90;;;;;;4170455;28;20092;-60
2022/10/14 09:03:21;;;;;;;4.60;3.83;;;13.60;99.90;;;;;;4171162;28;20087;-60
2022/10/14 09:05:43;;;;;;;4.03;3.63;;;13.80;99.90;;;;;;4170005;28;20123;-59
2022/10/14 09:08:05;;;;;;;2.67;2.58;;;13.90;99.90;;;;;;4161826;28;20057;-60
2022/10/14 09:10:41;;;;;;;3.55;3.35;;;14.10;99.90;;;;;;4170703;28;20056;-59
2022/10/14 09:13:27;;;;;;;3.47;2.85;;;14.30;99.90;;;;;;4170995;28;20049;-59
2022/10/14 09:15:57;;;;;;;2.97;2.88;;;14.60;99.90;;;;;;4169716;28;20374;-59
2022/10/14 09:18:39;;;;;;;5.72;3.42;;;14.80;99.90;;;;;;4170870;28;20060;-59
2022/10/14 09:21:02;;;;;;;2.38;2.28;;;14.90;99.90;;;;;;4170705;28;20064;-59
2022/10/14 09:23:24;;;;;;;3.25;2.60;;;15.10;99.90;;;;;;4170603;28;20051;-59
2022/10/14 09:26:02;;;;;;;3.00;2.80;;;15.20;99.90;;;;;;4170374;28;20056;-59
2022/10/14 09:28:37;;;;;;;3.20;2.80;;;15.80;99.90;;;;;;4169711;28;20642;-59
2022/10/14 09:30:57;;;;;;;2.90;2.67;;;16.00;99.90;;;;;;4169271;28;20585;-59
2022/10/14 09:33:19;;;;;;;15.05;3.63;;;16.00;99.90;;;;;;4170652;28;20133;-59
2022/10/14 09:35:42;;;;;;;4.00;3.63;;;16.10;99.90;;;;;;4170476;28;20055;-59
2022/10/14 09:38:03;;;;;;;7.97;3.63;;;16.20;99.90;;;;;;4169204;28;20595;-59
2022/10/14 09:40:32;;;;;;;4.45;3.40;;;16.50;99.90;;;;;;4168946;28;20060;-59
2022/10/14 09:43:08;;;;;;;6.25;2.35;;;17.00;99.90;;;;;;4169622;28;20056;-60
2022/10/14 09:45:52;;;;;;;32.80;5.28;;;18.00;99.90;;;;;;4168975;28;20056;-60
2022/10/14 09:48:17;;;;;;;2.40;2.20;;;17.80;99.90;;;;;;4170311;28;20056;-60
2022/10/14 09:50:42;;;;;;;2.67;2.47;;;17.70;99.90;;;;;;4167097;28;20135;-60
2022/10/14 09:53:13;;;;;;;3.70;2.75;;;17.50;99.90;;;;;;4168965;28;20080;-56
2022/10/14 09:55:33;;;;;;;3.42;2.70;;;17.50;99.90;;;;;;4166458;28;20664;-57
2022/10/14 09:58:16;;;;;;;4.65;2.38;;;17.60;99.90;;;;;;4167363;28;20127;-57
2022/10/14 10:00:37;;;;;;;2.90;2.33;;;17.90;99.90;;;;;;4169128;28;20096;-57
2022/10/14 10:02:58;;;;;;;3.40;2.80;;;17.90;99.90;;;;;;4170414;28;20123;-57
2022/10/14 10:05:24;;;;;;;5.30;3.20;;;17.90;99.90;;;;;;4169138;28;20052;-56
2022/10/14 10:08:18;;;;;;;2.60;2.47;;;18.10;99.90;;;;;;4168376;28;20564;-58
2022/10/14 10:10:39;;;;;;;2.47;2.33;;;18.40;99.90;;;;;;4168895;28;20456;-58
2022/10/14 10:13:00;;;;;;;4.05;3.78;;;18.60;99.90;;;;;;4169958;28;20543;-57
2022/10/14 10:15:21;;;;;;;2.97;2.80;;;18.90;99.90;;;;;;4168922;28;20056;-57
2022/10/14 10:17:41;;;;;;;4.25;2.50;;;19.20;99.90;;;;;;4169585;28;20658;-57
2022/10/14 10:20:30;;;;;;;4.78;2.28;;;19.20;99.90;;;;;;4169410;28;20067;-57
2022/10/14 10:22:51;;;;;;;2.47;2.38;;;19.50;99.90;;;;;;4168436;28;20055;-57
2022/10/14 10:25:12;;;;;;;3.47;2.25;;;19.50;99.90;;;;;;4169437;28;20056;-58
2022/10/14 10:27:46;;;;;;;6.20;2.05;;;19.70;99.90;;;;;;4167020;28;20570;-57
2022/10/14 10:30:17;;;;;;;3.90;1.95;;;20.00;99.90;;;;;;4168531;28;20059;-57
2022/10/14 10:32:58;;;;;;;8.77;1.90;;;20.00;99.90;;;;;;4167172;28;20056;-57
2022/10/14 10:35:43;;;;;;;2.85;2.35;;;20.20;99.90;;;;;;4169401;28;20063;-58
2022/10/14 10:38:10;;;;;;;4.85;3.13;;;20.60;99.90;;;;;;4168480;28;20079;-58
2022/10/14 10:40:40;;;;;;;2.85;1.88;;;21.00;99.90;;;;;;4169537;28;20095;-57
2022/10/14 10:43:36;;;;;;;3.88;1.80;;;21.10;99.90;;;;;;4169552;28;20060;-57
2022/10/14 10:46:04;;;;;;;3.97;1.77;;;21.30;99.90;;;;;;4115657;28;21741;-57
2022/10/14 10:48:44;;;;;;;2.53;1.98;;;21.20;99.90;;;;;;4117493;28;20491;-58
2022/10/14 10:51:11;;;;;;;2.67;1.60;;;21.40;99.90;;;;;;4117402;28;20053;-58
2022/10/14 10:54:01;;;;;;;4.32;1.10;;;20.80;99.90;;;;;;4115043;28;20138;-57
2022/10/14 10:56:40;;;;;;;1.75;1.20;;;20.80;99.90;;;;;;4113379;28;20057;-57
2022/10/14 10:59:39;;;;;;;1.17;1.08;;;21.30;99.90;;;;;;4114715;28;20445;-57
2022/10/14 11:02:32;;;;;;;1.30;1.30;;;21.60;99.90;;;;;;4107501;28;20544;-57
2022/10/14 11:05:14;;;;;;;3.08;1.45;;;21.90;99.90;;;;;;4104349;28;20086;-57
2022/10/14 11:13:44;;;;;;;2.88;1.02;;;21.60;99.10;;;;;;4117226;28;20057;-57
2022/10/14 11:16:32;;;;;;;3.28;1.73;;;21.70;99.90;;;;;;4116770;28;20109;-58
2022/10/14 11:19:25;;;;;;;1.40;1.30;;;21.50;99.90;;;;;;4119880;28;20061;-57
2022/10/14 11:22:27;;;;;;;3.05;1.45;;;22.10;99.90;;;;;;4172573;28;20165;-57
2022/10/14 11:24:59;;;;;;;1.90;1.00;;;22.50;99.40;;;;;;4172413;28;20562;-56
2022/10/14 11:27:32;;;;;;;1.33;0.98;;;22.70;98.30;;;;;;4168265;28;20079;-57
2022/10/14 11:30:19;;;;;;;1.00;0.90;;;22.90;97.10;;;;;;4172601;28;20053;-57
2022/10/14 11:32:45;;;;;;;2.65;1.00;;;23.30;97.50;;;;;;4157415;28;20053;-58
2022/10/14 11:35:32;;;;;;;4.72;1.00;;;23.20;98.40;;;;;;4172173;28;20405;-57
2022/10/14 11:38:33;;;;;;;5.57;1.00;;;22.50;97.70;;;;;;4171431;28;20110;-57
2022/10/14 11:41:05;;;;;;;3.33;0.93;;;22.90;99.00;;;;;;4176998;28;20103;-58
2022/10/14 11:43:38;;;;;;;2.17;1.20;;;22.80;97.20;;;;;;4166481;28;20565;-57
2022/10/14 11:46:05;;;;;;;2.17;1.10;;;22.80;97.30;;;;;;4171173;28;20100;-58
2022/10/14 11:48:51;;;;;;;1.20;0.90;;;23.40;97.60;;;;;;4170655;28;20128;-58
2022/10/14 11:51:16;;;;;;;13.95;1.48;;;23.90;97.50;;;;;;4171780;28;20052;-58
2022/10/14 11:53:56;;;;;;;3.03;0.88;;;23.60;97.60;;;;;;4171922;28;20056;-57
2022/10/14 11:56:41;;;;;;;0.93;0.80;;;23.20;98.10;;;;;;4172067;28;20060;-57
2022/10/14 11:59:23;;;;;;;0.93;0.93;;;23.70;96.70;;;;;;4172313;28;20071;-57
2022/10/14 12:01:47;;;;;;;1.48;0.85;;;22.90;97.20;;;;;;4171555;28;20052;-57
2022/10/14 12:04:19;;;;;;;2.53;1.08;;;22.80;97.80;;;;;;4168563;28;20292;-57
2022/10/14 12:06:48;;;;;;;1.17;1.00;;;23.40;96.10;;;;;;4170253;28;20052;-57
2022/10/14 12:09:23;;;;;;;2.50;0.95;;;23.50;96.00;;;;;;4171732;28;20044;-57
2022/10/14 12:11:58;;;;;;;0.80;0.80;;;23.60;97.20;;;;;;4169889;28;20045;-57
2022/10/14 12:14:42;;;;;;;1.45;0.80;;;23.80;98.50;;;;;;4170956;28;20052;-57
2022/10/14 12:17:06;;;;;;;1.95;0.93;;;24.20;96.60;;;;;;4171541;28;20428;-58
2022/10/14 12:19:28;;;;;;;1.05;1.05;;;24.00;94.90;;;;;;4170900;28;20060;-57
2022/10/14 12:22:08;;;;;;;1.20;0.95;;;23.90;96.50;;;;;;4169231;28;20094;-57
2022/10/14 12:24:35;;;;;;;3.00;0.98;;;24.10;97.30;;;;;;4171544;28;20428;-57
2022/10/14 12:27:05;;;;;;;1.55;0.82;;;24.10;97.40;;;;;;4167863;28;20052;-56
2022/10/14 12:29:34;;;;;;;3.22;0.98;;;24.40;95.30;;;;;;4168107;28;20296;-57
2022/10/14 12:32:03;;;;;;;3.10;1.20;;;23.90;96.40;;;;;;4169821;28;20103;-58
2022/10/14 12:34:30;;;;;;;3.70;1.10;;;23.20;96.30;;;;;;4170716;28;20128;-56
2022/10/14 12:36:51;;;;;;;1.00;0.95;;;23.20;97.40;;;;;;4171037;28;20062;-57
2022/10/14 12:39:18;;;;;;;3.10;0.95;;;22.60;96.60;;;;;;4171490;28;20144;-56
2022/10/14 12:41:42;;;;;;;1.48;0.90;;;23.10;96.70;;;;;;4168271;28;20064;-59
2022/10/14 12:44:04;;;;;;;1.40;1.40;;;23.50;95.60;;;;;;4170207;28;20055;-59